createdAt,value
2022-09-29T00:02:46.104Z,94181.00
2022-09-29T00:06:48.794Z,94182.00
2022-09-29T00:10:52.884Z,94179.00
2022-09-29T00:14:55.624Z,94184.00
2022-09-29T00:18:58.337Z,94187.00
2022-09-29T00:23:01.052Z,94182.00
2022-09-29T00:27:05.354Z,94180.00
2022-09-29T00:31:09.789Z,94178.00
2022-09-29T00:35:12.570Z,94171.00
2022-09-29T00:39:15.275Z,94168.00
2022-09-29T00:43:22.988Z,94170.00
2022-09-29T00:47:26.291Z,94159.00
2022-09-29T00:51:31.346Z,94151.00
2022-09-29T00:55:39.294Z,94138.00
2022-09-29T00:59:50.298Z,94136.00
2022-09-29T01:03:57.405Z,94153.00
2022-09-29T01:08:05.271Z,94148.00
2022-09-29T01:12:08.662Z,94141.00
2022-09-29T01:16:12.800Z,94147.00
2022-09-29T01:20:18.930Z,94134.00
2022-09-29T01:24:43.677Z,94137.00
2022-09-29T01:29:17.687Z,94138.00
2022-09-29T01:33:30.539Z,94133.00
2022-09-29T01:37:49.089Z,94134.00
2022-09-29T01:41:56.409Z,94134.00
2022-09-29T01:46:04.052Z,94128.00
2022-09-29T01:50:12.894Z,94124.00
2022-09-29T01:54:19.803Z,94137.00
2022-09-29T01:58:27.521Z,94143.00
2022-09-29T02:02:35.168Z,94138.00
2022-09-29T02:06:44.601Z,94131.00
2022-09-29T02:10:51.003Z,94132.00
2022-09-29T02:14:55.077Z,94133.00
2022-09-29T02:19:03.441Z,94134.00
2022-09-29T02:23:07.778Z,94136.00
2022-09-29T02:27:11.263Z,94125.00
2022-09-29T02:31:14.842Z,94135.00
2022-09-29T02:35:17.845Z,94140.00
2022-09-29T02:39:33.042Z,94143.00
2022-09-29T02:43:50.041Z,94144.00
2022-09-29T02:48:22.326Z,94129.00
2022-09-29T02:52:33.937Z,94125.00
2022-09-29T02:56:46.591Z,94127.00
2022-09-29T03:00:49.453Z,94123.00
2022-09-29T03:04:52.313Z,94114.00
2022-09-29T03:08:55.195Z,94125.00
2022-09-29T03:12:59.234Z,94125.00
2022-09-29T03:17:01.929Z,94121.00
2022-09-29T03:21:04.766Z,94113.00
2022-09-29T03:25:08.178Z,94120.00
2022-09-29T03:29:12.198Z,94126.00
2022-09-29T03:33:14.921Z,94109.00
2022-09-29T03:37:17.637Z,94101.00
2022-09-29T03:41:20.350Z,94088.00
2022-09-29T03:45:24.409Z,94100.00
2022-09-29T03:49:27.111Z,94101.00
2022-09-29T03:53:29.858Z,94124.00
2022-09-29T03:57:32.545Z,94118.00
2022-09-29T04:01:38.157Z,94124.00
2022-09-29T04:05:41.096Z,94111.00
2022-09-29T04:09:43.850Z,94112.00
2022-09-29T04:13:46.586Z,94122.00
2022-09-29T04:17:50.605Z,94132.00
2022-09-29T04:21:53.348Z,94118.00
2022-09-29T04:25:56.114Z,94119.00
2022-09-29T04:29:58.799Z,94118.00
2022-09-29T04:34:03.032Z,94120.00
2022-09-29T04:38:05.778Z,94134.00
2022-09-29T04:42:08.474Z,94135.00
2022-09-29T04:46:12.207Z,94124.00
2022-09-29T04:50:16.422Z,94131.00
2022-09-29T04:54:19.096Z,94117.00
2022-09-29T04:58:21.786Z,94113.00
2022-09-29T05:02:24.565Z,94100.00
2022-09-29T05:06:28.910Z,94102.00
2022-09-29T05:10:31.971Z,94099.00
2022-09-29T05:14:34.954Z,94095.00
2022-09-29T05:18:37.639Z,94092.00
2022-09-29T05:22:41.653Z,94098.00
2022-09-29T05:26:44.378Z,94096.00
2022-09-29T05:30:47.038Z,94097.00
2022-09-29T05:34:50.352Z,94086.00
2022-09-29T05:38:54.417Z,94094.00
2022-09-29T05:42:59.794Z,94094.00
2022-09-29T05:47:02.472Z,94096.00
2022-09-29T05:51:09.326Z,94101.00
2022-09-29T05:55:13.369Z,94093.00
2022-09-29T05:59:16.133Z,94085.00
2022-09-29T06:03:19.975Z,94079.00
2022-09-29T06:07:22.697Z,94088.00
2022-09-29T06:11:28.676Z,94084.00
2022-09-29T06:15:31.431Z,94089.00
2022-09-29T06:19:34.132Z,94088.00
2022-09-29T06:23:37.428Z,94082.00
2022-09-29T06:27:41.475Z,94084.00
2022-09-29T06:31:44.244Z,94090.00
2022-09-29T06:36:05.327Z,94087.00
2022-09-29T06:40:11.258Z,94093.00
2022-09-29T06:44:15.491Z,94106.00
2022-09-29T06:48:18.168Z,94117.00
2022-09-29T06:52:21.491Z,94110.00
2022-09-29T06:56:24.487Z,94114.00
2022-09-29T07:00:28.590Z,94117.00
2022-09-29T07:04:31.262Z,94105.00
2022-09-29T07:08:35.183Z,94111.00
2022-09-29T07:12:37.933Z,94113.00
2022-09-29T07:16:42.062Z,94117.00
2022-09-29T07:20:44.759Z,94122.00
2022-09-29T07:24:47.753Z,94128.00
2022-09-29T07:28:50.487Z,94125.00
2022-09-29T07:33:01.669Z,94123.00
2022-09-29T07:37:05.263Z,94121.00
2022-09-29T07:41:10.026Z,94119.00
2022-09-29T07:45:13.051Z,94124.00
2022-09-29T07:49:17.231Z,94116.00
2022-09-29T07:53:20.099Z,94121.00
2022-09-29T07:57:22.785Z,94128.00
2022-09-29T08:01:26.082Z,94131.00
2022-09-29T08:05:30.342Z,94134.00
2022-09-29T08:09:40.113Z,94136.00
2022-09-29T08:13:45.445Z,94147.00
2022-09-29T08:17:48.217Z,94149.00
2022-09-29T08:21:52.375Z,94145.00
2022-09-29T08:26:02.088Z,94150.00
2022-09-29T08:30:05.682Z,94154.00
2022-09-29T08:34:08.377Z,94156.00
2022-09-29T08:38:12.447Z,94150.00
2022-09-29T08:42:24.527Z,94155.00
2022-09-29T08:46:36.194Z,94160.00
2022-09-29T08:50:45.689Z,94165.00
2022-09-29T08:54:54.128Z,94168.00
2022-09-29T08:58:57.622Z,94161.00
2022-09-29T09:03:14.971Z,94169.00
2022-09-29T09:07:25.607Z,94159.00
2022-09-29T09:11:40.955Z,94160.00
2022-09-29T09:15:54.103Z,94171.00
2022-09-29T09:20:10.157Z,94186.00
2022-09-29T09:24:21.553Z,94190.00
2022-09-29T09:28:33.037Z,94187.00
2022-09-29T09:32:43.268Z,94184.00
2022-09-29T09:37:02.642Z,94186.00
2022-09-29T09:41:09.347Z,94191.00
2022-09-29T09:45:19.356Z,94190.00
2022-09-29T09:49:26.194Z,94197.00
2022-09-29T09:53:36.346Z,94201.00
2022-09-29T09:58:04.339Z,94200.00
2022-09-29T10:02:16.834Z,94206.00
2022-09-29T10:06:19.719Z,94201.00
2022-09-29T10:10:24.849Z,94200.00
2022-09-29T10:14:29.276Z,94211.00
2022-09-29T10:18:38.455Z,94206.00
2022-09-29T10:22:41.170Z,94203.00
2022-09-29T10:26:47.658Z,94199.00
2022-09-29T10:30:50.915Z,94209.00
2022-09-29T10:35:06.269Z,94214.00
2022-09-29T10:39:32.113Z,94213.00
2022-09-29T10:43:37.839Z,94219.00
2022-09-29T10:47:41.183Z,94221.00
2022-09-29T10:51:55.983Z,94223.00
2022-09-29T10:56:01.694Z,94221.00
2022-09-29T11:00:06.154Z,94229.00
2022-09-29T11:04:19.363Z,94236.00
2022-09-29T11:08:27.491Z,94234.00
2022-09-29T11:12:33.956Z,94237.00
2022-09-29T11:16:38.574Z,94222.00
2022-09-29T11:20:41.580Z,94231.00
2022-09-29T11:25:07.855Z,94236.00
2022-09-29T11:29:35.092Z,94246.00
2022-09-29T11:33:42.129Z,94253.00
2022-09-29T11:38:00.557Z,94256.00
2022-09-29T11:42:18.581Z,94260.00
2022-09-29T11:46:36.909Z,94259.00
2022-09-29T11:50:49.653Z,94261.00
2022-09-29T11:55:05.463Z,94255.00
2022-09-29T11:59:44.143Z,94249.00
2022-09-29T12:03:53.779Z,94249.00
2022-09-29T12:08:09.044Z,94254.00
2022-09-29T12:12:23.593Z,94263.00
2022-09-29T12:16:33.157Z,94256.00
2022-09-29T12:20:39.499Z,94251.00
2022-09-29T12:24:46.587Z,94251.00
2022-09-29T12:28:55.394Z,94245.00
2022-09-29T12:33:06.350Z,94241.00
2022-09-29T12:37:17.746Z,94241.00
2022-09-29T12:41:24.835Z,94248.00
2022-09-29T12:45:35.134Z,94244.00
2022-09-29T12:49:51.191Z,94239.00
2022-09-29T12:54:05.758Z,94239.00
2022-09-29T12:58:16.080Z,94243.00
2022-09-29T13:02:38.197Z,94256.00
2022-09-29T13:06:57.135Z,94243.00
2022-09-29T13:11:10.179Z,94251.00
2022-09-29T13:15:36.928Z,94257.00
2022-09-29T13:19:58.181Z,94252.00
2022-09-29T13:24:20.813Z,94253.00
2022-09-29T13:28:29.172Z,94257.00
2022-09-29T13:32:43.148Z,94262.00
2022-09-29T13:36:48.130Z,94269.00
2022-09-29T13:41:12.296Z,94269.00
2022-09-29T13:45:17.478Z,94276.00
2022-09-29T13:49:31.538Z,94258.00
2022-09-29T13:53:38.477Z,94272.00
2022-09-29T13:57:51.995Z,94271.00
2022-09-29T14:01:54.795Z,94276.00
2022-09-29T14:06:36.523Z,94284.00
2022-09-29T14:10:42.034Z,94291.00
2022-09-29T14:14:52.265Z,94285.00
2022-09-29T14:18:58.370Z,94297.00
2022-09-29T14:23:03.752Z,94292.00
2022-09-29T14:27:26.810Z,94303.00
2022-09-29T14:31:32.299Z,94314.00
2022-09-29T14:35:37.630Z,94316.00
2022-09-29T14:39:41.012Z,94307.00
2022-09-29T14:43:46.932Z,94322.00
2022-09-29T14:48:16.128Z,94327.00
2022-09-29T14:52:29.021Z,94329.00
2022-09-29T14:56:48.453Z,94327.00
2022-09-29T15:01:02.573Z,94330.00
2022-09-29T15:05:30.751Z,94337.00
2022-09-29T15:09:38.028Z,94334.00
2022-09-29T15:13:41.859Z,94343.00
2022-09-29T15:17:54.330Z,94338.00
2022-09-29T15:22:12.121Z,94342.00
2022-09-29T15:26:16.571Z,94343.00
2022-09-29T15:30:21.995Z,94343.00
2022-09-29T15:34:26.383Z,94337.00
2022-09-29T15:38:38.137Z,94335.00
2022-09-29T15:42:42.048Z,94338.00
2022-09-29T15:46:50.292Z,94348.00
2022-09-29T15:50:53.989Z,94346.00
2022-09-29T15:54:59.930Z,94335.00
2022-09-29T15:59:04.538Z,94350.00
2022-09-29T16:03:12.178Z,94353.00
2022-09-29T16:07:22.410Z,94347.00
2022-09-29T16:11:28.918Z,94361.00
2022-09-29T16:15:34.438Z,94355.00
2022-09-29T16:19:37.690Z,94358.00
2022-09-29T16:23:44.380Z,94355.00
2022-09-29T16:27:54.679Z,94367.00
2022-09-29T16:31:59.009Z,94369.00
2022-09-29T16:36:09.019Z,94370.00
2022-09-29T16:40:20.590Z,94377.00
2022-09-29T16:44:33.056Z,94393.00
2022-09-29T16:48:41.465Z,94397.00
2022-09-29T16:52:46.991Z,94407.00
2022-09-29T16:57:09.826Z,94404.00
2022-09-29T17:01:13.923Z,94415.00
2022-09-29T17:05:16.667Z,94418.00
2022-09-29T17:09:24.123Z,94414.00
2022-09-29T17:13:31.131Z,94434.00
2022-09-29T17:17:35.407Z,94441.00
2022-09-29T17:21:38.245Z,94441.00
2022-09-29T17:25:43.846Z,94444.00
2022-09-29T17:29:46.529Z,94445.00
2022-09-29T17:33:50.552Z,94453.00
2022-09-29T17:37:53.451Z,94457.00
2022-09-29T17:41:56.170Z,94466.00
2022-09-29T17:46:00.105Z,94471.00
2022-09-29T17:50:18.417Z,94474.00
2022-09-29T17:54:27.675Z,94473.00
2022-09-29T17:58:30.460Z,94485.00
2022-09-29T18:02:33.174Z,94481.00
2022-09-29T18:06:38.049Z,94482.00
2022-09-29T18:10:44.084Z,94478.00
2022-09-29T18:14:46.791Z,94470.00
2022-09-29T18:18:49.593Z,94472.00
2022-09-29T18:22:53.662Z,94477.00
2022-09-29T18:26:56.322Z,94484.00
2022-09-29T18:31:07.700Z,94476.00
2022-09-29T18:35:16.274Z,94481.00
2022-09-29T18:39:20.480Z,94487.00
2022-09-29T18:43:25.895Z,94489.00
2022-09-29T18:47:28.611Z,94500.00
2022-09-29T18:51:31.303Z,94487.00
2022-09-29T18:55:35.428Z,94486.00
2022-09-29T18:59:38.091Z,94488.00
2022-09-29T19:03:41.730Z,94497.00
2022-09-29T19:07:44.431Z,94498.00
2022-09-29T19:11:49.428Z,94490.00
2022-09-29T19:15:56.324Z,94496.00
2022-09-29T19:20:00.130Z,94493.00
2022-09-29T19:24:03.006Z,94502.00
2022-09-29T19:28:07.547Z,94495.00
2022-09-29T19:32:11.998Z,94499.00
2022-09-29T19:36:17.681Z,94506.00
2022-09-29T19:40:22.993Z,94500.00
2022-09-29T19:44:28.765Z,94500.00
2022-09-29T19:48:31.466Z,94512.00
2022-09-29T19:52:34.170Z,94515.00
2022-09-29T19:56:38.557Z,94517.00
2022-09-29T20:00:42.635Z,94530.00
2022-09-29T20:04:45.341Z,94532.00
2022-09-29T20:08:48.098Z,94535.00
2022-09-29T20:12:50.752Z,94541.00
2022-09-29T20:16:56.381Z,94534.00
2022-09-29T20:21:00.362Z,94538.00
2022-09-29T20:25:03.127Z,94543.00
2022-09-29T20:29:05.954Z,94540.00
2022-09-29T20:33:10.002Z,94546.00
2022-09-29T20:37:14.604Z,94548.00
2022-09-29T20:41:17.426Z,94549.00
2022-09-29T20:45:20.110Z,94556.00
2022-09-29T20:49:24.482Z,94568.00
2022-09-29T20:53:27.307Z,94578.00
2022-09-29T20:57:29.982Z,94575.00
2022-09-29T21:01:33.373Z,94567.00
2022-09-29T21:05:37.460Z,94574.00
2022-09-29T21:09:40.215Z,94579.00
2022-09-29T21:13:43.398Z,94580.00
2022-09-29T21:17:46.079Z,94584.00
2022-09-29T21:21:50.099Z,94592.00
2022-09-29T21:25:59.742Z,94597.00
2022-09-29T21:30:02.912Z,94601.00
2022-09-29T21:34:07.651Z,94609.00
2022-09-29T21:38:11.688Z,94600.00
2022-09-29T21:42:14.353Z,94593.00
2022-09-29T21:46:18.849Z,94602.00
2022-09-29T21:50:21.551Z,94605.00
2022-09-29T21:54:25.880Z,94616.00
2022-09-29T21:58:29.355Z,94608.00
2022-09-29T22:02:32.748Z,94608.00
2022-09-29T22:06:38.174Z,94621.00
2022-09-29T22:10:42.214Z,94618.00
2022-09-29T22:14:48.949Z,94610.00
2022-09-29T22:19:11.815Z,94612.00
2022-09-29T22:23:15.001Z,94631.00
2022-09-29T22:27:19.008Z,94625.00
2022-09-29T22:31:21.961Z,94625.00
2022-09-29T22:35:25.059Z,94629.00
2022-09-29T22:39:27.727Z,94620.00
2022-09-29T22:43:31.740Z,94620.00
2022-09-29T22:47:34.413Z,94619.00
2022-09-29T22:51:37.103Z,94625.00
2022-09-29T22:55:42.230Z,94614.00
2022-09-29T22:59:46.237Z,94624.00
2022-09-29T23:03:49.815Z,94622.00
2022-09-29T23:07:52.534Z,94612.00
2022-09-29T23:11:55.489Z,94619.00
2022-09-29T23:16:08.281Z,94633.00
2022-09-29T23:20:14.333Z,94629.00
2022-09-29T23:24:17.138Z,94625.00
2022-09-29T23:28:19.781Z,94634.00
2022-09-29T23:32:23.825Z,94625.00
2022-09-29T23:36:28.250Z,94629.00
2022-09-29T23:40:30.913Z,94623.00
2022-09-29T23:44:35.525Z,94627.00
2022-09-29T23:48:39.550Z,94628.00
2022-09-29T23:52:42.825Z,94635.00
2022-09-29T23:56:45.634Z,94637.00
